sensor_id;sensor_type;location;lat;lon;timestamp;P1;durP1;ratioP1;P2;durP2;ratioP2
37201;SDS011;37799;52.390;6.136;2022-10-30T00:00:18;8.48;;;1.80;;
37201;SDS011;37799;52.390;6.136;2022-10-30T00:02:45;6.18;;;2.05;;
37201;SDS011;37799;52.390;6.136;2022-10-30T00:05:11;6.10;;;1.80;;
37201;SDS011;37799;52.390;6.136;2022-10-30T00:07:36;8.10;;;2.00;;
37201;SDS011;37799;52.390;6.136;2022-10-30T00:10:01;9.37;;;1.93;;
37201;SDS011;37799;52.390;6.136;2022-10-30T00:12:27;9.10;;;2.80;;
37201;SDS011;37799;52.390;6.136;2022-10-30T00:14:52;7.00;;;2.10;;
37201;SDS011;37799;52.390;6.136;2022-10-30T00:17:17;8.98;;;2.17;;
37201;SDS011;37799;52.390;6.136;2022-10-30T00:19:43;9.45;;;2.20;;
37201;SDS011;37799;52.390;6.136;2022-10-30T00:22:08;6.37;;;1.37;;
37201;SDS011;37799;52.390;6.136;2022-10-30T00:24:34;6.65;;;2.00;;
37201;SDS011;37799;52.390;6.136;2022-10-30T00:26:59;9.23;;;2.40;;
37201;SDS011;37799;52.390;6.136;2022-10-30T00:29:24;7.93;;;1.98;;
37201;SDS011;37799;52.390;6.136;2022-10-30T00:31:50;7.35;;;2.40;;
37201;SDS011;37799;52.390;6.136;2022-10-30T00:34:17;10.15;;;2.20;;
37201;SDS011;37799;52.390;6.136;2022-10-30T00:36:43;6.35;;;1.95;;
37201;SDS011;37799;52.390;6.136;2022-10-30T00:39:08;7.38;;;2.00;;
37201;SDS011;37799;52.390;6.136;2022-10-30T00:41:33;7.97;;;1.98;;
37201;SDS011;37799;52.390;6.136;2022-10-30T00:43:59;7.40;;;1.80;;
37201;SDS011;37799;52.390;6.136;2022-10-30T00:46:37;9.40;;;2.13;;
37201;SDS011;37799;52.390;6.136;2022-10-30T00:49:16;7.00;;;1.80;;
37201;SDS011;37799;52.390;6.136;2022-10-30T00:51:45;7.13;;;1.98;;
37201;SDS011;37799;52.390;6.136;2022-10-30T00:54:14;8.38;;;1.65;;
37201;SDS011;37799;52.390;6.136;2022-10-30T00:56:42;10.57;;;1.90;;
37201;SDS011;37799;52.390;6.136;2022-10-30T00:59:10;10.02;;;2.38;;
37201;SDS011;37799;52.390;6.136;2022-10-30T01:01:41;10.65;;;2.35;;
37201;SDS011;37799;52.390;6.136;2022-10-30T01:04:08;7.07;;;2.47;;
37201;SDS011;37799;52.390;6.136;2022-10-30T01:06:36;8.63;;;2.30;;
37201;SDS011;37799;52.390;6.136;2022-10-30T01:09:04;6.80;;;2.00;;
37201;SDS011;37799;52.390;6.136;2022-10-30T01:11:29;10.43;;;2.00;;
37201;SDS011;37799;52.390;6.136;2022-10-30T01:14:00;8.10;;;2.65;;
37201;SDS011;37799;52.390;6.136;2022-10-30T01:19:28;6.85;;;2.25;;
37201;SDS011;37799;52.390;6.136;2022-10-30T01:25:02;5.93;;;1.85;;
37201;SDS011;37799;52.390;6.136;2022-10-30T01:27:38;7.63;;;1.98;;
37201;SDS011;37799;52.390;6.136;2022-10-30T01:35:46;7.93;;;2.25;;
37201;SDS011;37799;52.390;6.136;2022-10-30T01:38:24;10.73;;;1.77;;
37201;SDS011;37799;52.390;6.136;2022-10-30T01:40:55;5.95;;;2.10;;
37201;SDS011;37799;52.390;6.136;2022-10-30T01:43:21;7.25;;;1.92;;
37201;SDS011;37799;52.390;6.136;2022-10-30T02:02:15;8.15;;;1.95;;
37201;SDS011;37799;52.390;6.136;2022-10-30T02:04:41;9.55;;;2.40;;
37201;SDS011;37799;52.390;6.136;2022-10-30T02:07:07;7.03;;;1.80;;
37201;SDS011;37799;52.390;6.136;2022-10-30T02:09:33;6.80;;;1.88;;
37201;SDS011;37799;52.390;6.136;2022-10-30T02:11:59;9.10;;;2.17;;
37201;SDS011;37799;52.390;6.136;2022-10-30T02:14:30;7.75;;;2.55;;
37201;SDS011;37799;52.390;6.136;2022-10-30T02:19:34;7.10;;;1.75;;
37201;SDS011;37799;52.390;6.136;2022-10-30T02:21:59;9.60;;;2.28;;
37201;SDS011;37799;52.390;6.136;2022-10-30T02:24:25;8.95;;;2.35;;
37201;SDS011;37799;52.390;6.136;2022-10-30T02:26:50;7.38;;;1.60;;
37201;SDS011;37799;52.390;6.136;2022-10-30T02:29:15;6.07;;;1.60;;
37201;SDS011;37799;52.390;6.136;2022-10-30T02:31:44;12.02;;;2.17;;
37201;SDS011;37799;52.390;6.136;2022-10-30T02:34:10;5.93;;;1.48;;
37201;SDS011;37799;52.390;6.136;2022-10-30T02:36:35;6.30;;;1.83;;
37201;SDS011;37799;52.390;6.136;2022-10-30T02:39:00;7.32;;;1.95;;
37201;SDS011;37799;52.390;6.136;2022-10-30T02:41:26;8.65;;;2.10;;
37201;SDS011;37799;52.390;6.136;2022-10-30T02:43:51;6.50;;;1.88;;
37201;SDS011;37799;52.390;6.136;2022-10-30T02:46:17;11.35;;;1.70;;
37201;SDS011;37799;52.390;6.136;2022-10-30T02:48:43;7.63;;;1.67;;
37201;SDS011;37799;52.390;6.136;2022-10-30T02:51:09;12.48;;;2.13;;
37201;SDS011;37799;52.390;6.136;2022-10-30T02:53:34;8.65;;;2.10;;
37201;SDS011;37799;52.390;6.136;2022-10-30T02:56:09;7.32;;;2.00;;
37201;SDS011;37799;52.390;6.136;2022-10-30T02:58:36;6.13;;;1.85;;
37201;SDS011;37799;52.390;6.136;2022-10-30T03:01:08;9.77;;;2.25;;
37201;SDS011;37799;52.390;6.136;2022-10-30T03:03:36;5.90;;;1.75;;
37201;SDS011;37799;52.390;6.136;2022-10-30T03:06:02;9.40;;;2.03;;
37201;SDS011;37799;52.390;6.136;2022-10-30T03:08:29;8.50;;;2.60;;
37201;SDS011;37799;52.390;6.136;2022-10-30T03:11:28;7.30;;;1.85;;
37201;SDS011;37799;52.390;6.136;2022-10-30T03:13:47;11.95;;;2.45;;
37201;SDS011;37799;52.390;6.136;2022-10-30T03:16:16;7.35;;;2.38;;
37201;SDS011;37799;52.390;6.136;2022-10-30T03:18:46;9.35;;;2.40;;
37201;SDS011;37799;52.390;6.136;2022-10-30T03:21:15;6.35;;;1.92;;
37201;SDS011;37799;52.390;6.136;2022-10-30T03:23:41;9.43;;;2.28;;
37201;SDS011;37799;52.390;6.136;2022-10-30T03:26:07;7.45;;;2.10;;
37201;SDS011;37799;52.390;6.136;2022-10-30T03:28:33;8.70;;;2.15;;
37201;SDS011;37799;52.390;6.136;2022-10-30T03:31:02;13.50;;;3.03;;
37201;SDS011;37799;52.390;6.136;2022-10-30T03:33:32;6.03;;;2.30;;
37201;SDS011;37799;52.390;6.136;2022-10-30T03:35:59;10.95;;;2.40;;
37201;SDS011;37799;52.390;6.136;2022-10-30T03:38:24;16.65;;;2.70;;
37201;SDS011;37799;52.390;6.136;2022-10-30T03:40:50;8.63;;;1.88;;
37201;SDS011;37799;52.390;6.136;2022-10-30T03:43:16;6.65;;;2.03;;
37201;SDS011;37799;52.390;6.136;2022-10-30T03:45:45;8.50;;;2.20;;
37201;SDS011;37799;52.390;6.136;2022-10-30T03:48:15;7.13;;;2.00;;
37201;SDS011;37799;52.390;6.136;2022-10-30T03:50:41;9.23;;;2.92;;
37201;SDS011;37799;52.390;6.136;2022-10-30T03:53:06;6.57;;;1.83;;
37201;SDS011;37799;52.390;6.136;2022-10-30T03:55:32;9.55;;;2.05;;
37201;SDS011;37799;52.390;6.136;2022-10-30T03:57:57;7.10;;;2.33;;
37201;SDS011;37799;52.390;6.136;2022-10-30T04:00:22;8.95;;;2.78;;
37201;SDS011;37799;52.390;6.136;2022-10-30T04:02:48;8.20;;;2.55;;
37201;SDS011;37799;52.390;6.136;2022-10-30T04:05:15;7.90;;;2.38;;
37201;SDS011;37799;52.390;6.136;2022-10-30T04:07:43;10.45;;;2.60;;
37201;SDS011;37799;52.390;6.136;2022-10-30T04:10:10;8.43;;;2.35;;
37201;SDS011;37799;52.390;6.136;2022-10-30T04:12:36;8.52;;;3.08;;
37201;SDS011;37799;52.390;6.136;2022-10-30T04:15:02;9.77;;;2.85;;
37201;SDS011;37799;52.390;6.136;2022-10-30T04:17:28;7.55;;;2.10;;
37201;SDS011;37799;52.390;6.136;2022-10-30T04:19:53;8.57;;;2.70;;
37201;SDS011;37799;52.390;6.136;2022-10-30T04:22:18;7.45;;;2.30;;
37201;SDS011;37799;52.390;6.136;2022-10-30T04:24:44;9.00;;;1.88;;
37201;SDS011;37799;52.390;6.136;2022-10-30T04:27:10;8.57;;;2.83;;
37201;SDS011;37799;52.390;6.136;2022-10-30T04:29:37;8.57;;;2.40;;
37201;SDS011;37799;52.390;6.136;2022-10-30T04:32:02;6.78;;;2.10;;
37201;SDS011;37799;52.390;6.136;2022-10-30T04:34:28;7.93;;;2.20;;
37201;SDS011;37799;52.390;6.136;2022-10-30T04:36:53;9.02;;;2.40;;
37201;SDS011;37799;52.390;6.136;2022-10-30T04:39:19;8.80;;;2.40;;
37201;SDS011;37799;52.390;6.136;2022-10-30T04:41:44;13.23;;;2.70;;
37201;SDS011;37799;52.390;6.136;2022-10-30T04:44:10;9.77;;;2.50;;
37201;SDS011;37799;52.390;6.136;2022-10-30T04:46:35;7.50;;;1.92;;
37201;SDS011;37799;52.390;6.136;2022-10-30T04:49:00;10.02;;;2.33;;
37201;SDS011;37799;52.390;6.136;2022-10-30T04:51:26;9.10;;;2.50;;
37201;SDS011;37799;52.390;6.136;2022-10-30T04:53:51;9.85;;;2.35;;
37201;SDS011;37799;52.390;6.136;2022-10-30T04:56:18;5.82;;;1.90;;
37201;SDS011;37799;52.390;6.136;2022-10-30T04:58:43;7.05;;;2.35;;
37201;SDS011;37799;52.390;6.136;2022-10-30T05:01:08;8.40;;;2.15;;
37201;SDS011;37799;52.390;6.136;2022-10-30T05:03:33;7.70;;;2.70;;
37201;SDS011;37799;52.390;6.136;2022-10-30T05:06:03;10.80;;;2.70;;
37201;SDS011;37799;52.390;6.136;2022-10-30T05:08:31;10.73;;;2.00;;
37201;SDS011;37799;52.390;6.136;2022-10-30T05:10:57;10.23;;;3.42;;
37201;SDS011;37799;52.390;6.136;2022-10-30T05:13:23;9.48;;;2.65;;
37201;SDS011;37799;52.390;6.136;2022-10-30T05:15:48;8.23;;;2.40;;
37201;SDS011;37799;52.390;6.136;2022-10-30T05:18:13;7.53;;;2.28;;
37201;SDS011;37799;52.390;6.136;2022-10-30T05:20:39;10.70;;;2.92;;
37201;SDS011;37799;52.390;6.136;2022-10-30T05:23:04;11.35;;;2.72;;
37201;SDS011;37799;52.390;6.136;2022-10-30T05:25:30;8.90;;;3.05;;
37201;SDS011;37799;52.390;6.136;2022-10-30T05:27:59;7.53;;;3.15;;
37201;SDS011;37799;52.390;6.136;2022-10-30T05:30:26;9.35;;;2.33;;
37201;SDS011;37799;52.390;6.136;2022-10-30T05:32:56;8.32;;;2.60;;
37201;SDS011;37799;52.390;6.136;2022-10-30T05:35:22;8.98;;;2.83;;
37201;SDS011;37799;52.390;6.136;2022-10-30T05:37:47;9.00;;;2.83;;
37201;SDS011;37799;52.390;6.136;2022-10-30T05:40:13;8.57;;;2.72;;
37201;SDS011;37799;52.390;6.136;2022-10-30T05:42:43;9.98;;;2.72;;
37201;SDS011;37799;52.390;6.136;2022-10-30T05:47:34;8.77;;;2.10;;
37201;SDS011;37799;52.390;6.136;2022-10-30T05:49:59;9.70;;;3.00;;
37201;SDS011;37799;52.390;6.136;2022-10-30T05:52:25;6.87;;;2.43;;
37201;SDS011;37799;52.390;6.136;2022-10-30T05:54:50;9.18;;;2.53;;
37201;SDS011;37799;52.390;6.136;2022-10-30T05:57:15;8.30;;;2.08;;
37201;SDS011;37799;52.390;6.136;2022-10-30T05:59:40;8.68;;;2.30;;
37201;SDS011;37799;52.390;6.136;2022-10-30T06:02:06;8.32;;;2.70;;
37201;SDS011;37799;52.390;6.136;2022-10-30T06:04:31;9.50;;;2.58;;
37201;SDS011;37799;52.390;6.136;2022-10-30T06:06:56;11.75;;;3.03;;
37201;SDS011;37799;52.390;6.136;2022-10-30T06:09:22;8.25;;;2.33;;
37201;SDS011;37799;52.390;6.136;2022-10-30T06:11:47;9.82;;;2.38;;
37201;SDS011;37799;52.390;6.136;2022-10-30T06:14:12;8.55;;;3.05;;
37201;SDS011;37799;52.390;6.136;2022-10-30T06:16:37;10.82;;;2.65;;
37201;SDS011;37799;52.390;6.136;2022-10-30T06:19:03;7.35;;;2.72;;
37201;SDS011;37799;52.390;6.136;2022-10-30T06:21:28;9.07;;;2.65;;
37201;SDS011;37799;52.390;6.136;2022-10-30T06:23:53;6.30;;;2.13;;
37201;SDS011;37799;52.390;6.136;2022-10-30T06:26:19;8.00;;;2.42;;
37201;SDS011;37799;52.390;6.136;2022-10-30T06:28:45;8.52;;;2.50;;
37201;SDS011;37799;52.390;6.136;2022-10-30T06:31:10;10.48;;;2.50;;
37201;SDS011;37799;52.390;6.136;2022-10-30T06:33:35;9.45;;;2.45;;
37201;SDS011;37799;52.390;6.136;2022-10-30T06:36:01;7.38;;;2.42;;
37201;SDS011;37799;52.390;6.136;2022-10-30T06:38:26;7.57;;;2.55;;
37201;SDS011;37799;52.390;6.136;2022-10-30T06:40:51;10.18;;;2.65;;
37201;SDS011;37799;52.390;6.136;2022-10-30T06:43:17;8.48;;;2.30;;
37201;SDS011;37799;52.390;6.136;2022-10-30T06:45:42;8.85;;;2.60;;
37201;SDS011;37799;52.390;6.136;2022-10-30T06:48:07;7.95;;;2.60;;
37201;SDS011;37799;52.390;6.136;2022-10-30T06:50:33;8.52;;;2.47;;
37201;SDS011;37799;52.390;6.136;2022-10-30T06:52:58;7.57;;;2.53;;
37201;SDS011;37799;52.390;6.136;2022-10-30T06:55:24;11.13;;;2.58;;
37201;SDS011;37799;52.390;6.136;2022-10-30T06:57:52;7.82;;;2.97;;
37201;SDS011;37799;52.390;6.136;2022-10-30T07:00:18;9.13;;;2.42;;
37201;SDS011;37799;52.390;6.136;2022-10-30T07:02:44;9.38;;;3.75;;
37201;SDS011;37799;52.390;6.136;2022-10-30T07:05:19;10.85;;;3.38;;
37201;SDS011;37799;52.390;6.136;2022-10-30T07:07:44;11.73;;;2.67;;
37201;SDS011;37799;52.390;6.136;2022-10-30T07:10:09;9.35;;;2.78;;
37201;SDS011;37799;52.390;6.136;2022-10-30T07:12:35;10.27;;;2.92;;
37201;SDS011;37799;52.390;6.136;2022-10-30T07:15:00;7.93;;;2.45;;
37201;SDS011;37799;52.390;6.136;2022-10-30T07:17:25;11.73;;;3.17;;
37201;SDS011;37799;52.390;6.136;2022-10-30T07:19:50;12.00;;;3.65;;
37201;SDS011;37799;52.390;6.136;2022-10-30T07:22:16;14.95;;;3.28;;
37201;SDS011;37799;52.390;6.136;2022-10-30T07:24:41;8.77;;;3.08;;
37201;SDS011;37799;52.390;6.136;2022-10-30T07:27:07;8.70;;;3.13;;
37201;SDS011;37799;52.390;6.136;2022-10-30T07:29:32;10.65;;;2.67;;
37201;SDS011;37799;52.390;6.136;2022-10-30T07:31:57;13.88;;;3.47;;
37201;SDS011;37799;52.390;6.136;2022-10-30T07:34:22;11.80;;;3.65;;
37201;SDS011;37799;52.390;6.136;2022-10-30T07:36:48;10.93;;;2.97;;
37201;SDS011;37799;52.390;6.136;2022-10-30T07:39:13;9.33;;;2.83;;
37201;SDS011;37799;52.390;6.136;2022-10-30T07:41:38;11.93;;;3.58;;
37201;SDS011;37799;52.390;6.136;2022-10-30T07:44:03;10.68;;;3.00;;
37201;SDS011;37799;52.390;6.136;2022-10-30T07:46:29;11.70;;;2.97;;
37201;SDS011;37799;52.390;6.136;2022-10-30T07:48:54;11.65;;;3.67;;
37201;SDS011;37799;52.390;6.136;2022-10-30T07:51:20;9.02;;;3.80;;
37201;SDS011;37799;52.390;6.136;2022-10-30T07:53:46;7.20;;;2.78;;
37201;SDS011;37799;52.390;6.136;2022-10-30T07:56:11;10.10;;;3.10;;
37201;SDS011;37799;52.390;6.136;2022-10-30T07:58:37;9.68;;;3.42;;
37201;SDS011;37799;52.390;6.136;2022-10-30T08:01:02;10.10;;;3.15;;
37201;SDS011;37799;52.390;6.136;2022-10-30T08:03:28;11.75;;;3.63;;
37201;SDS011;37799;52.390;6.136;2022-10-30T08:05:53;7.32;;;2.63;;
37201;SDS011;37799;52.390;6.136;2022-10-30T08:08:18;10.00;;;3.25;;
37201;SDS011;37799;52.390;6.136;2022-10-30T08:10:44;10.50;;;2.83;;
37201;SDS011;37799;52.390;6.136;2022-10-30T08:13:09;9.10;;;2.93;;
37201;SDS011;37799;52.390;6.136;2022-10-30T08:15:34;7.78;;;3.05;;
37201;SDS011;37799;52.390;6.136;2022-10-30T08:18:00;7.40;;;2.72;;
37201;SDS011;37799;52.390;6.136;2022-10-30T08:20:25;7.53;;;2.60;;
37201;SDS011;37799;52.390;6.136;2022-10-30T08:22:54;9.48;;;2.50;;
37201;SDS011;37799;52.390;6.136;2022-10-30T08:25:22;10.80;;;3.90;;
37201;SDS011;37799;52.390;6.136;2022-10-30T08:27:55;7.10;;;2.33;;
37201;SDS011;37799;52.390;6.136;2022-10-30T08:30:23;10.80;;;3.42;;
37201;SDS011;37799;52.390;6.136;2022-10-30T08:32:50;10.05;;;3.80;;
37201;SDS011;37799;52.390;6.136;2022-10-30T08:35:16;9.27;;;2.75;;
37201;SDS011;37799;52.390;6.136;2022-10-30T08:37:42;8.88;;;3.10;;
37201;SDS011;37799;52.390;6.136;2022-10-30T08:40:08;10.15;;;3.50;;
37201;SDS011;37799;52.390;6.136;2022-10-30T08:42:34;9.52;;;2.90;;
37201;SDS011;37799;52.390;6.136;2022-10-30T08:45:00;8.17;;;2.50;;
37201;SDS011;37799;52.390;6.136;2022-10-30T08:47:25;11.75;;;2.85;;
37201;SDS011;37799;52.390;6.136;2022-10-30T08:49:50;11.23;;;3.03;;
37201;SDS011;37799;52.390;6.136;2022-10-30T08:52:15;10.73;;;3.03;;
37201;SDS011;37799;52.390;6.136;2022-10-30T08:54:41;10.02;;;3.10;;
37201;SDS011;37799;52.390;6.136;2022-10-30T08:57:06;8.02;;;3.17;;
37201;SDS011;37799;52.390;6.136;2022-10-30T08:59:31;11.30;;;2.90;;
37201;SDS011;37799;52.390;6.136;2022-10-30T09:01:56;9.32;;;2.80;;
37201;SDS011;37799;52.390;6.136;2022-10-30T09:04:22;7.15;;;2.55;;
37201;SDS011;37799;52.390;6.136;2022-10-30T09:06:47;8.88;;;2.75;;
37201;SDS011;37799;52.390;6.136;2022-10-30T09:09:12;7.13;;;2.43;;
37201;SDS011;37799;52.390;6.136;2022-10-30T09:11:38;8.15;;;2.85;;
37201;SDS011;37799;52.390;6.136;2022-10-30T09:14:04;9.50;;;2.92;;
37201;SDS011;37799;52.390;6.136;2022-10-30T09:16:29;11.33;;;2.60;;
37201;SDS011;37799;52.390;6.136;2022-10-30T09:18:54;8.20;;;2.83;;
37201;SDS011;37799;52.390;6.136;2022-10-30T09:21:19;6.93;;;2.60;;
37201;SDS011;37799;52.390;6.136;2022-10-30T09:23:45;9.47;;;2.80;;
37201;SDS011;37799;52.390;6.136;2022-10-30T09:26:10;11.23;;;3.07;;
37201;SDS011;37799;52.390;6.136;2022-10-30T09:28:35;13.18;;;2.85;;
37201;SDS011;37799;52.390;6.136;2022-10-30T09:31:01;8.27;;;2.78;;
37201;SDS011;37799;52.390;6.136;2022-10-30T09:33:26;7.35;;;2.30;;
37201;SDS011;37799;52.390;6.136;2022-10-30T09:35:52;11.23;;;3.35;;
37201;SDS011;37799;52.390;6.136;2022-10-30T09:38:17;8.07;;;2.70;;
37201;SDS011;37799;52.390;6.136;2022-10-30T09:46:02;11.05;;;3.30;;
37201;SDS011;37799;52.390;6.136;2022-10-30T09:54:13;11.55;;;3.03;;
37201;SDS011;37799;52.390;6.136;2022-10-30T09:56:44;10.00;;;2.97;;
37201;SDS011;37799;52.390;6.136;2022-10-30T10:02:12;9.65;;;2.65;;
37201;SDS011;37799;52.390;6.136;2022-10-30T10:04:48;12.95;;;2.55;;
37201;SDS011;37799;52.390;6.136;2022-10-30T10:07:19;10.07;;;2.40;;
37201;SDS011;37799;52.390;6.136;2022-10-30T10:09:48;10.13;;;2.92;;
37201;SDS011;37799;52.390;6.136;2022-10-30T10:14:49;8.38;;;2.83;;
37201;SDS011;37799;52.390;6.136;2022-10-30T10:17:18;8.93;;;2.83;;
37201;SDS011;37799;52.390;6.136;2022-10-30T10:20:00;6.93;;;2.20;;
37201;SDS011;37799;52.390;6.136;2022-10-30T10:25:02;8.85;;;2.35;;
37201;SDS011;37799;52.390;6.136;2022-10-30T10:30:52;9.02;;;3.42;;
37201;SDS011;37799;52.390;6.136;2022-10-30T10:36:14;7.68;;;2.78;;
37201;SDS011;37799;52.390;6.136;2022-10-30T10:41:46;9.25;;;2.30;;
37201;SDS011;37799;52.390;6.136;2022-10-30T10:47:29;8.05;;;2.70;;
37201;SDS011;37799;52.390;6.136;2022-10-30T10:50:38;7.80;;;2.80;;
37201;SDS011;37799;52.390;6.136;2022-10-30T10:55:26;8.50;;;2.53;;
37201;SDS011;37799;52.390;6.136;2022-10-30T10:57:57;8.83;;;2.83;;
37201;SDS011;37799;52.390;6.136;2022-10-30T11:00:28;7.72;;;2.63;;
37201;SDS011;37799;52.390;6.136;2022-10-30T11:02:59;9.23;;;2.80;;
37201;SDS011;37799;52.390;6.136;2022-10-30T11:08:26;12.45;;;3.15;;
37201;SDS011;37799;52.390;6.136;2022-10-30T11:10:57;10.98;;;3.10;;
37201;SDS011;37799;52.390;6.136;2022-10-30T11:13:28;10.82;;;3.33;;
37201;SDS011;37799;52.390;6.136;2022-10-30T11:18:41;10.43;;;2.78;;
37201;SDS011;37799;52.390;6.136;2022-10-30T11:21:09;11.25;;;2.63;;
37201;SDS011;37799;52.390;6.136;2022-10-30T11:31:35;10.15;;;2.75;;
37201;SDS011;37799;52.390;6.136;2022-10-30T11:36:42;9.18;;;2.97;;
37201;SDS011;37799;52.390;6.136;2022-10-30T11:39:16;8.00;;;2.17;;
37201;SDS011;37799;52.390;6.136;2022-10-30T11:41:45;6.78;;;2.53;;
37201;SDS011;37799;52.390;6.136;2022-10-30T11:44:19;11.25;;;2.42;;
37201;SDS011;37799;52.390;6.136;2022-10-30T11:46:45;7.22;;;2.30;;
37201;SDS011;37799;52.390;6.136;2022-10-30T11:49:22;10.38;;;2.78;;
37201;SDS011;37799;52.390;6.136;2022-10-30T11:52:01;12.38;;;3.17;;
37201;SDS011;37799;52.390;6.136;2022-10-30T11:54:28;8.75;;;2.75;;
37201;SDS011;37799;52.390;6.136;2022-10-30T11:56:53;10.45;;;3.05;;
37201;SDS011;37799;52.390;6.136;2022-10-30T11:59:20;7.95;;;2.80;;
37201;SDS011;37799;52.390;6.136;2022-10-30T12:01:57;10.15;;;2.22;;
37201;SDS011;37799;52.390;6.136;2022-10-30T12:04:27;8.95;;;2.55;;
37201;SDS011;37799;52.390;6.136;2022-10-30T12:07:06;7.82;;;2.83;;
37201;SDS011;37799;52.390;6.136;2022-10-30T12:09:46;8.70;;;2.97;;
37201;SDS011;37799;52.390;6.136;2022-10-30T12:15:17;8.02;;;2.80;;
37201;SDS011;37799;52.390;6.136;2022-10-30T12:20:17;10.02;;;2.72;;
37201;SDS011;37799;52.390;6.136;2022-10-30T12:22:42;8.77;;;2.55;;
37201;SDS011;37799;52.390;6.136;2022-10-30T12:25:24;7.13;;;2.17;;
37201;SDS011;37799;52.390;6.136;2022-10-30T12:28:27;9.02;;;2.30;;
37201;SDS011;37799;52.390;6.136;2022-10-30T12:30:51;8.73;;;2.28;;
37201;SDS011;37799;52.390;6.136;2022-10-30T12:33:23;8.32;;;2.30;;
37201;SDS011;37799;52.390;6.136;2022-10-30T12:35:56;6.93;;;2.40;;
37201;SDS011;37799;52.390;6.136;2022-10-30T12:38:42;12.75;;;2.25;;
37201;SDS011;37799;52.390;6.136;2022-10-30T12:41:25;8.57;;;2.40;;
37201;SDS011;37799;52.390;6.136;2022-10-30T12:44:12;8.57;;;2.42;;
37201;SDS011;37799;52.390;6.136;2022-10-30T12:49:51;10.75;;;2.35;;
37201;SDS011;37799;52.390;6.136;2022-10-30T13:00:59;10.63;;;3.22;;
37201;SDS011;37799;52.390;6.136;2022-10-30T13:03:33;11.63;;;2.55;;
37201;SDS011;37799;52.390;6.136;2022-10-30T13:06:08;10.50;;;2.53;;
37201;SDS011;37799;52.390;6.136;2022-10-30T13:08:40;6.72;;;1.90;;
37201;SDS011;37799;52.390;6.136;2022-10-30T13:13:46;9.77;;;2.33;;
37201;SDS011;37799;52.390;6.136;2022-10-30T13:16:15;8.60;;;2.45;;
37201;SDS011;37799;52.390;6.136;2022-10-30T13:18:44;7.05;;;2.20;;
37201;SDS011;37799;52.390;6.136;2022-10-30T13:26:15;10.75;;;2.97;;
37201;SDS011;37799;52.390;6.136;2022-10-30T13:31:30;6.00;;;2.15;;
37201;SDS011;37799;52.390;6.136;2022-10-30T13:44:49;9.05;;;2.22;;
37201;SDS011;37799;52.390;6.136;2022-10-30T13:47:33;12.23;;;2.38;;
37201;SDS011;37799;52.390;6.136;2022-10-30T13:50:08;5.50;;;1.83;;
37201;SDS011;37799;52.390;6.136;2022-10-30T13:52:51;8.45;;;2.40;;
37201;SDS011;37799;52.390;6.136;2022-10-30T13:55:25;7.78;;;2.00;;
37201;SDS011;37799;52.390;6.136;2022-10-30T14:03:28;6.82;;;2.17;;
37201;SDS011;37799;52.390;6.136;2022-10-30T14:06:23;6.43;;;1.88;;
37201;SDS011;37799;52.390;6.136;2022-10-30T14:11:44;8.15;;;2.22;;
37201;SDS011;37799;52.390;6.136;2022-10-30T14:14:43;10.50;;;2.45;;
37201;SDS011;37799;52.390;6.136;2022-10-30T14:17:11;7.70;;;2.10;;
37201;SDS011;37799;52.390;6.136;2022-10-30T14:22:28;5.75;;;1.80;;
37201;SDS011;37799;52.390;6.136;2022-10-30T14:24:55;7.53;;;2.17;;
37201;SDS011;37799;52.390;6.136;2022-10-30T14:27:21;7.65;;;1.90;;
37201;SDS011;37799;52.390;6.136;2022-10-30T14:29:51;7.57;;;2.25;;
37201;SDS011;37799;52.390;6.136;2022-10-30T14:39:46;5.43;;;1.77;;
37201;SDS011;37799;52.390;6.136;2022-10-30T14:42:14;8.40;;;1.75;;
37201;SDS011;37799;52.390;6.136;2022-10-30T14:53:46;7.18;;;2.03;;
37201;SDS011;37799;52.390;6.136;2022-10-30T15:10:08;6.47;;;1.98;;
37201;SDS011;37799;52.390;6.136;2022-10-30T15:15:56;6.35;;;2.08;;
37201;SDS011;37799;52.390;6.136;2022-10-30T15:18:22;12.30;;;3.50;;
37201;SDS011;37799;52.390;6.136;2022-10-30T15:20:51;9.40;;;3.88;;
37201;SDS011;37799;52.390;6.136;2022-10-30T15:23:27;8.10;;;3.17;;
37201;SDS011;37799;52.390;6.136;2022-10-30T15:25:55;14.90;;;3.58;;
37201;SDS011;37799;52.390;6.136;2022-10-30T15:28:27;19.13;;;7.20;;
37201;SDS011;37799;52.390;6.136;2022-10-30T15:31:19;13.57;;;3.25;;
37201;SDS011;37799;52.390;6.136;2022-10-30T15:33:47;7.40;;;2.20;;
37201;SDS011;37799;52.390;6.136;2022-10-30T15:44:18;10.35;;;2.33;;
37201;SDS011;37799;52.390;6.136;2022-10-30T15:46:51;9.43;;;2.42;;
37201;SDS011;37799;52.390;6.136;2022-10-30T15:49:20;12.70;;;2.13;;
37201;SDS011;37799;52.390;6.136;2022-10-30T15:52:13;7.95;;;2.55;;
37201;SDS011;37799;52.390;6.136;2022-10-30T15:54:42;10.23;;;2.40;;
37201;SDS011;37799;52.390;6.136;2022-10-30T15:57:17;8.80;;;2.65;;
37201;SDS011;37799;52.390;6.136;2022-10-30T15:59:51;6.57;;;2.70;;
37201;SDS011;37799;52.390;6.136;2022-10-30T16:02:22;9.10;;;2.88;;
37201;SDS011;37799;52.390;6.136;2022-10-30T16:04:49;20.33;;;11.35;;
37201;SDS011;37799;52.390;6.136;2022-10-30T16:07:19;27.08;;;15.13;;
37201;SDS011;37799;52.390;6.136;2022-10-30T16:09:53;21.92;;;10.52;;
37201;SDS011;37799;52.390;6.136;2022-10-30T16:12:24;12.35;;;5.40;;
37201;SDS011;37799;52.390;6.136;2022-10-30T16:14:51;11.75;;;3.22;;
37201;SDS011;37799;52.390;6.136;2022-10-30T16:17:18;10.80;;;3.30;;
37201;SDS011;37799;52.390;6.136;2022-10-30T16:19:45;11.70;;;3.20;;
37201;SDS011;37799;52.390;6.136;2022-10-30T16:22:22;17.55;;;3.72;;
37201;SDS011;37799;52.390;6.136;2022-10-30T16:24:50;8.15;;;2.95;;
37201;SDS011;37799;52.390;6.136;2022-10-30T16:27:18;9.73;;;2.83;;
37201;SDS011;37799;52.390;6.136;2022-10-30T16:29:46;11.55;;;3.35;;
37201;SDS011;37799;52.390;6.136;2022-10-30T16:32:15;18.90;;;3.88;;
37201;SDS011;37799;52.390;6.136;2022-10-30T16:34:43;10.50;;;2.97;;
37201;SDS011;37799;52.390;6.136;2022-10-30T16:37:12;7.68;;;2.92;;
37201;SDS011;37799;52.390;6.136;2022-10-30T16:39:42;7.55;;;2.85;;
37201;SDS011;37799;52.390;6.136;2022-10-30T16:42:18;8.40;;;3.03;;
37201;SDS011;37799;52.390;6.136;2022-10-30T16:44:48;7.78;;;3.05;;
37201;SDS011;37799;52.390;6.136;2022-10-30T16:49:54;8.02;;;3.03;;
37201;SDS011;37799;52.390;6.136;2022-10-30T16:52:24;9.93;;;3.13;;
37201;SDS011;37799;52.390;6.136;2022-10-30T16:54:58;8.93;;;2.65;;
37201;SDS011;37799;52.390;6.136;2022-10-30T16:57:26;10.68;;;2.55;;
37201;SDS011;37799;52.390;6.136;2022-10-30T16:59:53;9.00;;;2.92;;
37201;SDS011;37799;52.390;6.136;2022-10-30T17:02:22;9.82;;;3.30;;
37201;SDS011;37799;52.390;6.136;2022-10-30T17:04:54;10.48;;;3.92;;
37201;SDS011;37799;52.390;6.136;2022-10-30T17:07:25;8.32;;;2.75;;
37201;SDS011;37799;52.390;6.136;2022-10-30T17:09:52;12.77;;;3.85;;
37201;SDS011;37799;52.390;6.136;2022-10-30T17:12:28;10.38;;;3.72;;
37201;SDS011;37799;52.390;6.136;2022-10-30T17:14:55;12.27;;;4.13;;
37201;SDS011;37799;52.390;6.136;2022-10-30T17:19:56;13.73;;;4.28;;
37201;SDS011;37799;52.390;6.136;2022-10-30T17:22:23;13.32;;;4.30;;
37201;SDS011;37799;52.390;6.136;2022-10-30T17:24:48;15.20;;;3.72;;
37201;SDS011;37799;52.390;6.136;2022-10-30T17:27:31;15.30;;;3.03;;
37201;SDS011;37799;52.390;6.136;2022-10-30T17:30:02;9.25;;;3.17;;
37201;SDS011;37799;52.390;6.136;2022-10-30T17:32:51;10.77;;;3.05;;
37201;SDS011;37799;52.390;6.136;2022-10-30T17:35:18;16.70;;;3.65;;
37201;SDS011;37799;52.390;6.136;2022-10-30T17:37:43;11.38;;;3.88;;
37201;SDS011;37799;52.390;6.136;2022-10-30T17:40:09;12.45;;;3.55;;
37201;SDS011;37799;52.390;6.136;2022-10-30T17:42:36;10.90;;;3.42;;
37201;SDS011;37799;52.390;6.136;2022-10-30T17:45:02;10.40;;;3.20;;
37201;SDS011;37799;52.390;6.136;2022-10-30T17:47:30;11.20;;;4.43;;
37201;SDS011;37799;52.390;6.136;2022-10-30T17:49:56;11.20;;;3.80;;